sensor_id;sensor_type;location;lat;lon;timestamp;pressure;altitude;pressure_sealevel;temperature;humidity
24160;BME280;62385;41.594;23.808;2023-04-28T00:01:52;95572.81;;;5.64;76.26
24160;BME280;62385;41.594;23.808;2023-04-28T00:04:18;95577.81;;;5.77;76.62
24160;BME280;62385;41.594;23.808;2023-04-28T00:06:44;95578.69;;;5.87;75.68
24160;BME280;62385;41.594;23.808;2023-04-28T00:09:10;95582.38;;;5.65;76.07
24160;BME280;62385;41.594;23.808;2023-04-28T00:11:36;95581.97;;;5.60;76.17
24160;BME280;62385;41.594;23.808;2023-04-28T00:14:03;95580.84;;;5.43;76.67
24160;BME280;62385;41.594;23.808;2023-04-28T00:16:29;95580.00;;;5.24;78.01
24160;BME280;62385;41.594;23.808;2023-04-28T00:18:54;95583.59;;;5.23;77.37
24160;BME280;62385;41.594;23.808;2023-04-28T00:21:21;95581.25;;;5.29;76.85
24160;BME280;62385;41.594;23.808;2023-04-28T00:23:47;95587.91;;;5.33;76.19
24160;BME280;62385;41.594;23.808;2023-04-28T00:26:13;95580.97;;;5.13;76.83
24160;BME280;62385;41.594;23.808;2023-04-28T00:28:41;95580.53;;;5.27;76.79
24160;BME280;62385;41.594;23.808;2023-04-28T00:31:12;95596.63;;;5.24;76.73
24160;BME280;62385;41.594;23.808;2023-04-28T00:33:39;95593.69;;;5.08;77.09
24160;BME280;62385;41.594;23.808;2023-04-28T00:36:05;95579.72;;;5.27;76.90
24160;BME280;62385;41.594;23.808;2023-04-28T00:38:31;95596.88;;;5.11;76.37
24160;BME280;62385;41.594;23.808;2023-04-28T00:40:57;95590.72;;;4.92;77.17
24160;BME280;62385;41.594;23.808;2023-04-28T00:43:24;95598.53;;;4.73;78.32
24160;BME280;62385;41.594;23.808;2023-04-28T00:45:49;95594.59;;;4.88;77.66
24160;BME280;62385;41.594;23.808;2023-04-28T00:48:16;95588.06;;;4.82;77.78
24160;BME280;62385;41.594;23.808;2023-04-28T00:50:43;95591.19;;;4.67;77.65
24160;BME280;62385;41.594;23.808;2023-04-28T00:53:10;95593.66;;;4.58;77.42
24160;BME280;62385;41.594;23.808;2023-04-28T00:55:37;95593.72;;;4.78;76.88
24160;BME280;62385;41.594;23.808;2023-04-28T00:58:04;95593.19;;;4.84;77.04
24160;BME280;62385;41.594;23.808;2023-04-28T01:00:29;95592.13;;;5.05;76.10
24160;BME280;62385;41.594;23.808;2023-04-28T01:02:56;95589.66;;;5.04;76.47
24160;BME280;62385;41.594;23.808;2023-04-28T01:05:26;95598.41;;;4.74;76.74
24160;BME280;62385;41.594;23.808;2023-04-28T01:07:52;95591.34;;;4.75;76.62
24160;BME280;62385;41.594;23.808;2023-04-28T01:10:19;95594.22;;;4.62;76.33
24160;BME280;62385;41.594;23.808;2023-04-28T01:12:44;95597.13;;;4.69;76.39
24160;BME280;62385;41.594;23.808;2023-04-28T01:15:20;95599.53;;;4.72;76.27
24160;BME280;62385;41.594;23.808;2023-04-28T01:17:47;95604.44;;;4.55;76.97
24160;BME280;62385;41.594;23.808;2023-04-28T01:20:13;95604.72;;;4.62;76.35
24160;BME280;62385;41.594;23.808;2023-04-28T01:22:39;95605.47;;;4.74;76.93
24160;BME280;62385;41.594;23.808;2023-04-28T01:25:06;95604.81;;;4.51;76.46
24160;BME280;62385;41.594;23.808;2023-04-28T01:27:32;95602.25;;;4.40;77.29
24160;BME280;62385;41.594;23.808;2023-04-28T01:29:59;95608.34;;;4.40;76.39
24160;BME280;62385;41.594;23.808;2023-04-28T01:32:25;95608.34;;;4.40;76.80
24160;BME280;62385;41.594;23.808;2023-04-28T01:34:51;95609.06;;;4.42;76.57
24160;BME280;62385;41.594;23.808;2023-04-28T01:37:17;95617.34;;;3.96;77.78
24160;BME280;62385;41.594;23.808;2023-04-28T01:39:42;95612.59;;;4.11;77.49
24160;BME280;62385;41.594;23.808;2023-04-28T01:42:08;95605.63;;;4.00;77.83
24160;BME280;62385;41.594;23.808;2023-04-28T01:44:34;95609.72;;;4.14;77.22
24160;BME280;62385;41.594;23.808;2023-04-28T01:46:59;95616.97;;;4.22;76.93
24160;BME280;62385;41.594;23.808;2023-04-28T01:49:25;95606.56;;;4.20;77.22
24160;BME280;62385;41.594;23.808;2023-04-28T01:51:51;95612.84;;;4.29;76.90
24160;BME280;62385;41.594;23.808;2023-04-28T01:54:16;95613.06;;;4.16;75.65
24160;BME280;62385;41.594;23.808;2023-04-28T01:56:42;95619.72;;;3.99;77.22
24160;BME280;62385;41.594;23.808;2023-04-28T01:59:10;95615.84;;;3.83;78.10
24160;BME280;62385;41.594;23.808;2023-04-28T02:01:35;95626.44;;;3.60;78.48
24160;BME280;62385;41.594;23.808;2023-04-28T02:04:01;95622.06;;;3.82;78.05
24160;BME280;62385;41.594;23.808;2023-04-28T02:06:30;95622.75;;;3.63;78.23
24160;BME280;62385;41.594;23.808;2023-04-28T02:08:56;95623.59;;;3.52;78.57
24160;BME280;62385;41.594;23.808;2023-04-28T02:11:21;95619.66;;;3.58;78.64
24160;BME280;62385;41.594;23.808;2023-04-28T02:13:47;95621.22;;;3.81;77.86
24160;BME280;62385;41.594;23.808;2023-04-28T02:16:13;95629.44;;;3.88;77.29
24160;BME280;62385;41.594;23.808;2023-04-28T02:18:38;95626.88;;;3.77;77.75
24160;BME280;62385;41.594;23.808;2023-04-28T02:21:11;95632.81;;;3.79;77.36
24160;BME280;62385;41.594;23.808;2023-04-28T02:23:38;95635.19;;;3.82;77.65
24160;BME280;62385;41.594;23.808;2023-04-28T02:26:04;95626.63;;;3.80;77.19
24160;BME280;62385;41.594;23.808;2023-04-28T02:28:30;95628.94;;;3.62;78.04
24160;BME280;62385;41.594;23.808;2023-04-28T02:31:09;95630.59;;;3.95;76.80
24160;BME280;62385;41.594;23.808;2023-04-28T02:33:37;95640.59;;;3.69;77.44
24160;BME280;62385;41.594;23.808;2023-04-28T02:36:04;95650.41;;;3.67;78.25
24160;BME280;62385;41.594;23.808;2023-04-28T02:38:31;95644.94;;;3.91;76.57
24160;BME280;62385;41.594;23.808;2023-04-28T02:41:02;95640.56;;;3.59;77.88
24160;BME280;62385;41.594;23.808;2023-04-28T02:43:30;95648.69;;;3.77;77.48
24160;BME280;62385;41.594;23.808;2023-04-28T02:45:55;95654.66;;;3.79;77.66
24160;BME280;62385;41.594;23.808;2023-04-28T02:48:22;95652.41;;;3.75;77.25
24160;BME280;62385;41.594;23.808;2023-04-28T02:50:47;95659.16;;;3.56;78.12
24160;BME280;62385;41.594;23.808;2023-04-28T02:53:14;95655.25;;;3.40;78.56
24160;BME280;62385;41.594;23.808;2023-04-28T02:55:40;95662.38;;;3.60;77.76
24160;BME280;62385;41.594;23.808;2023-04-28T02:58:06;95661.19;;;3.53;78.05
24160;BME280;62385;41.594;23.808;2023-04-28T03:00:32;95667.06;;;3.45;78.31
24160;BME280;62385;41.594;23.808;2023-04-28T03:02:57;95674.38;;;3.31;78.41
24160;BME280;62385;41.594;23.808;2023-04-28T03:05:23;95670.88;;;3.41;78.80
24160;BME280;62385;41.594;23.808;2023-04-28T03:07:49;95672.75;;;3.18;79.39
24160;BME280;62385;41.594;23.808;2023-04-28T03:10:14;95681.66;;;3.27;78.97
24160;BME280;62385;41.594;23.808;2023-04-28T03:12:40;95685.56;;;3.33;79.07
24160;BME280;62385;41.594;23.808;2023-04-28T03:15:06;95678.19;;;3.15;78.70
24160;BME280;62385;41.594;23.808;2023-04-28T03:17:35;95683.25;;;2.85;79.39
24160;BME280;62385;41.594;23.808;2023-04-28T03:20:03;95694.94;;;2.81;79.59
24160;BME280;62385;41.594;23.808;2023-04-28T03:22:30;95691.69;;;3.00;79.16
24160;BME280;62385;41.594;23.808;2023-04-28T03:24:56;95696.81;;;2.90;79.92
24160;BME280;62385;41.594;23.808;2023-04-28T03:27:24;95691.69;;;3.00;79.64
24160;BME280;62385;41.594;23.808;2023-04-28T03:29:53;95701.47;;;2.98;79.05
24160;BME280;62385;41.594;23.808;2023-04-28T03:32:18;95704.56;;;3.03;79.91
24160;BME280;62385;41.594;23.808;2023-04-28T03:34:44;95698.75;;;3.10;79.43
24160;BME280;62385;41.594;23.808;2023-04-28T03:37:10;95707.78;;;2.95;80.36
24160;BME280;62385;41.594;23.808;2023-04-28T03:39:36;95717.19;;;2.87;79.98
24160;BME280;62385;41.594;23.808;2023-04-28T03:42:01;95720.41;;;2.79;80.11
24160;BME280;62385;41.594;23.808;2023-04-28T03:44:52;95713.63;;;2.76;79.66
24160;BME280;62385;41.594;23.808;2023-04-28T03:47:18;95715.13;;;2.57;80.47
24160;BME280;62385;41.594;23.808;2023-04-28T03:49:44;95730.91;;;2.90;79.98
24160;BME280;62385;41.594;23.808;2023-04-28T03:52:11;95735.22;;;3.02;79.35
24160;BME280;62385;41.594;23.808;2023-04-28T03:54:36;95740.91;;;3.30;78.99
24160;BME280;62385;41.594;23.808;2023-04-28T03:57:02;95743.53;;;3.30;78.66
24160;BME280;62385;41.594;23.808;2023-04-28T03:59:31;95736.75;;;3.16;78.88
24160;BME280;62385;41.594;23.808;2023-04-28T04:01:57;95734.13;;;3.38;78.95
24160;BME280;62385;41.594;23.808;2023-04-28T04:04:23;95745.16;;;3.75;76.99
24160;BME280;62385;41.594;23.808;2023-04-28T04:06:50;95743.28;;;3.44;77.80
24160;BME280;62385;41.594;23.808;2023-04-28T04:09:16;95753.66;;;3.45;77.75
24160;BME280;62385;41.594;23.808;2023-04-28T04:11:42;95746.41;;;3.38;77.96
24160;BME280;62385;41.594;23.808;2023-04-28T04:14:07;95750.56;;;3.40;78.18
24160;BME280;62385;41.594;23.808;2023-04-28T04:16:34;95747.00;;;3.41;78.10
24160;BME280;62385;41.594;23.808;2023-04-28T04:19:00;95749.16;;;3.47;78.00
24160;BME280;62385;41.594;23.808;2023-04-28T04:21:35;95743.78;;;3.92;77.04
24160;BME280;62385;41.594;23.808;2023-04-28T04:24:01;95743.31;;;4.18;76.14
24160;BME280;62385;41.594;23.808;2023-04-28T04:26:27;95749.53;;;4.49;75.76
24160;BME280;62385;41.594;23.808;2023-04-28T04:28:53;95754.72;;;4.60;75.18
24160;BME280;62385;41.594;23.808;2023-04-28T04:31:19;95759.22;;;4.70;75.45
24160;BME280;62385;41.594;23.808;2023-04-28T04:33:45;95757.03;;;4.54;75.43
24160;BME280;62385;41.594;23.808;2023-04-28T04:36:11;95759.91;;;4.92;75.34
24160;BME280;62385;41.594;23.808;2023-04-28T04:38:37;95762.75;;;4.80;75.42
24160;BME280;62385;41.594;23.808;2023-04-28T04:41:15;95760.41;;;4.86;75.20
24160;BME280;62385;41.594;23.808;2023-04-28T04:43:42;95768.63;;;4.51;75.42
24160;BME280;62385;41.594;23.808;2023-04-28T04:46:08;95770.69;;;4.89;74.63
24160;BME280;62385;41.594;23.808;2023-04-28T04:48:33;95768.63;;;4.93;74.19
24160;BME280;62385;41.594;23.808;2023-04-28T04:50:59;95775.69;;;5.13;73.99
24160;BME280;62385;41.594;23.808;2023-04-28T04:53:25;95774.25;;;5.39;73.72
24160;BME280;62385;41.594;23.808;2023-04-28T04:55:52;95775.97;;;5.50;72.79
24160;BME280;62385;41.594;23.808;2023-04-28T04:58:18;95770.66;;;5.71;73.05
24160;BME280;62385;41.594;23.808;2023-04-28T05:01:17;95764.38;;;5.62;72.42
24160;BME280;62385;41.594;23.808;2023-04-28T05:03:43;95777.13;;;6.07;72.08
24160;BME280;62385;41.594;23.808;2023-04-28T05:06:09;95777.97;;;6.26;70.72
24160;BME280;62385;41.594;23.808;2023-04-28T05:08:41;95772.59;;;6.37;71.47
24160;BME280;62385;41.594;23.808;2023-04-28T05:11:07;95767.75;;;6.33;70.21
24160;BME280;62385;41.594;23.808;2023-04-28T05:13:33;95768.56;;;6.72;68.84
24160;BME280;62385;41.594;23.808;2023-04-28T05:16:01;95769.69;;;6.69;68.44
24160;BME280;62385;41.594;23.808;2023-04-28T05:18:53;95770.22;;;6.63;70.22
24160;BME280;62385;41.594;23.808;2023-04-28T05:21:19;95765.22;;;6.60;70.04
24160;BME280;62385;41.594;23.808;2023-04-28T05:23:44;95765.06;;;6.81;70.44
24160;BME280;62385;41.594;23.808;2023-04-28T05:26:10;95763.81;;;6.85;71.58
24160;BME280;62385;41.594;23.808;2023-04-28T05:28:36;95766.28;;;6.96;71.21
24160;BME280;62385;41.594;23.808;2023-04-28T05:31:01;95767.94;;;7.16;69.13
24160;BME280;62385;41.594;23.808;2023-04-28T05:33:28;95767.34;;;7.22;70.05
24160;BME280;62385;41.594;23.808;2023-04-28T05:35:54;95773.69;;;7.39;69.41
24160;BME280;62385;41.594;23.808;2023-04-28T05:38:19;95781.47;;;7.40;67.42
24160;BME280;62385;41.594;23.808;2023-04-28T05:41:05;95775.78;;;7.45;67.88
24160;BME280;62385;41.594;23.808;2023-04-28T05:43:31;95778.53;;;7.53;65.76
24160;BME280;62385;41.594;23.808;2023-04-28T05:45:57;95770.72;;;7.52;65.33
24160;BME280;62385;41.594;23.808;2023-04-28T05:48:23;95780.88;;;7.56;66.77
24160;BME280;62385;41.594;23.808;2023-04-28T05:50:48;95783.19;;;7.69;64.91
24160;BME280;62385;41.594;23.808;2023-04-28T05:53:16;95783.38;;;7.58;64.58
24160;BME280;62385;41.594;23.808;2023-04-28T05:55:41;95793.66;;;7.51;64.78
24160;BME280;62385;41.594;23.808;2023-04-28T05:58:09;95788.44;;;7.78;67.43
24160;BME280;62385;41.594;23.808;2023-04-28T06:00:34;95784.38;;;7.74;66.80
24160;BME280;62385;41.594;23.808;2023-04-28T06:03:00;95790.34;;;8.04;64.60
24160;BME280;62385;41.594;23.808;2023-04-28T06:05:26;95776.41;;;7.84;66.48
24160;BME280;62385;41.594;23.808;2023-04-28T06:07:53;95782.22;;;7.87;65.67
24160;BME280;62385;41.594;23.808;2023-04-28T06:10:21;95785.03;;;8.13;65.66
24160;BME280;62385;41.594;23.808;2023-04-28T06:12:46;95778.44;;;8.17;65.54
24160;BME280;62385;41.594;23.808;2023-04-28T06:15:12;95784.69;;;7.99;65.12
24160;BME280;62385;41.594;23.808;2023-04-28T06:17:38;95770.38;;;8.19;63.40
24160;BME280;62385;41.594;23.808;2023-04-28T06:20:05;95779.50;;;8.24;64.13
24160;BME280;62385;41.594;23.808;2023-04-28T06:22:32;95780.56;;;8.14;64.87
24160;BME280;62385;41.594;23.808;2023-04-28T06:24:57;95781.00;;;8.37;64.33
24160;BME280;62385;41.594;23.808;2023-04-28T06:27:41;95784.09;;;8.67;61.63
24160;BME280;62385;41.594;23.808;2023-04-28T06:30:07;95780.47;;;8.33;63.47
24160;BME280;62385;41.594;23.808;2023-04-28T06:32:33;95775.94;;;8.43;62.68
24160;BME280;62385;41.594;23.808;2023-04-28T06:34:59;95775.03;;;8.70;63.09
24160;BME280;62385;41.594;23.808;2023-04-28T06:37:25;95769.78;;;8.78;62.05
24160;BME280;62385;41.594;23.808;2023-04-28T06:39:51;95778.56;;;8.96;62.66
24160;BME280;62385;41.594;23.808;2023-04-28T06:42:17;95772.06;;;8.91;62.72
24160;BME280;62385;41.594;23.808;2023-04-28T06:44:54;95771.41;;;8.89;62.10
24160;BME280;62385;41.594;23.808;2023-04-28T06:47:19;95765.97;;;8.90;61.11
24160;BME280;62385;41.594;23.808;2023-04-28T06:49:48;95767.56;;;9.09;60.74
24160;BME280;62385;41.594;23.808;2023-04-28T06:52:32;95770.13;;;9.18;58.83
24160;BME280;62385;41.594;23.808;2023-04-28T06:55:00;95762.69;;;9.22;57.71
24160;BME280;62385;41.594;23.808;2023-04-28T06:57:29;95752.34;;;9.37;57.55
24160;BME280;62385;41.594;23.808;2023-04-28T06:59:55;95758.19;;;9.48;58.12
24160;BME280;62385;41.594;23.808;2023-04-28T07:02:20;95764.00;;;9.44;55.61
24160;BME280;62385;41.594;23.808;2023-04-28T07:04:46;95762.75;;;9.56;56.69
24160;BME280;62385;41.594;23.808;2023-04-28T07:07:13;95756.59;;;9.55;56.21
24160;BME280;62385;41.594;23.808;2023-04-28T07:09:39;95758.06;;;9.84;53.79
24160;BME280;62385;41.594;23.808;2023-04-28T07:12:05;95757.31;;;10.07;53.40
24160;BME280;62385;41.594;23.808;2023-04-28T07:14:31;95764.84;;;9.86;52.15
24160;BME280;62385;41.594;23.808;2023-04-28T07:16:57;95756.75;;;9.88;52.51
24160;BME280;62385;41.594;23.808;2023-04-28T07:19:23;95749.75;;;9.79;51.05
24160;BME280;62385;41.594;23.808;2023-04-28T07:21:49;95748.50;;;9.99;48.41
24160;BME280;62385;41.594;23.808;2023-04-28T07:24:15;95741.47;;;10.32;50.95
24160;BME280;62385;41.594;23.808;2023-04-28T07:26:40;95738.72;;;9.99;49.03
24160;BME280;62385;41.594;23.808;2023-04-28T07:29:06;95736.53;;;10.37;48.41
24160;BME280;62385;41.594;23.808;2023-04-28T07:31:33;95738.91;;;10.06;50.74
24160;BME280;62385;41.594;23.808;2023-04-28T07:33:59;95739.16;;;10.21;51.41
24160;BME280;62385;41.594;23.808;2023-04-28T07:36:25;95736.88;;;10.42;52.10
24160;BME280;62385;41.594;23.808;2023-04-28T07:38:51;95733.41;;;10.57;50.90
24160;BME280;62385;41.594;23.808;2023-04-28T07:41:17;95728.47;;;10.12;49.36
24160;BME280;62385;41.594;23.808;2023-04-28T07:43:43;95726.59;;;10.39;50.07
24160;BME280;62385;41.594;23.808;2023-04-28T07:46:09;95728.59;;;10.61;52.38
24160;BME280;62385;41.594;23.808;2023-04-28T07:48:35;95728.28;;;10.72;52.67
24160;BME280;62385;41.594;23.808;2023-04-28T07:51:00;95723.13;;;10.87;50.69
24160;BME280;62385;41.594;23.808;2023-04-28T07:53:27;95728.75;;;11.00;50.54
24160;BME280;62385;41.594;23.808;2023-04-28T07:55:53;95723.13;;;10.95;47.82
24160;BME280;62385;41.594;23.808;2023-04-28T07:58:20;95724.25;;;11.17;48.21
24160;BME280;62385;41.594;23.808;2023-04-28T08:00:46;95716.47;;;10.99;50.56
24160;BME280;62385;41.594;23.808;2023-04-28T08:03:11;95713.56;;;11.41;49.68
24160;BME280;62385;41.594;23.808;2023-04-28T08:05:38;95722.94;;;11.21;47.90
24160;BME280;62385;41.594;23.808;2023-04-28T08:08:04;95715.91;;;11.36;48.92
24160;BME280;62385;41.594;23.808;2023-04-28T08:10:30;95715.59;;;11.23;49.79
24160;BME280;62385;41.594;23.808;2023-04-28T08:12:55;95710.53;;;11.52;48.88
24160;BME280;62385;41.594;23.808;2023-04-28T08:15:21;95694.28;;;11.55;47.81
24160;BME280;62385;41.594;23.808;2023-04-28T08:17:47;95697.19;;;11.68;48.19
24160;BME280;62385;41.594;23.808;2023-04-28T08:20:13;95691.59;;;12.02;47.89
24160;BME280;62385;41.594;23.808;2023-04-28T08:22:44;95697.28;;;12.22;47.99
24160;BME280;62385;41.594;23.808;2023-04-28T08:25:10;95696.00;;;11.87;46.43
24160;BME280;62385;41.594;23.808;2023-04-28T08:27:36;95697.31;;;11.36;44.97
24160;BME280;62385;41.594;23.808;2023-04-28T08:30:08;95698.25;;;11.43;46.03
24160;BME280;62385;41.594;23.808;2023-04-28T08:32:35;95692.13;;;11.50;47.53
24160;BME280;62385;41.594;23.808;2023-04-28T08:35:01;95679.81;;;11.96;45.01
24160;BME280;62385;41.594;23.808;2023-04-28T08:37:28;95672.53;;;11.90;45.50
24160;BME280;62385;41.594;23.808;2023-04-28T08:39:54;95663.97;;;11.64;47.93
24160;BME280;62385;41.594;23.808;2023-04-28T08:42:30;95677.09;;;11.66;43.84
24160;BME280;62385;41.594;23.808;2023-04-28T08:44:57;95668.88;;;11.44;44.58
24160;BME280;62385;41.594;23.808;2023-04-28T08:47:44;95671.88;;;11.41;47.46
24160;BME280;62385;41.594;23.808;2023-04-28T08:50:13;95670.28;;;11.71;44.43
24160;BME280;62385;41.594;23.808;2023-04-28T08:52:39;95668.44;;;11.64;43.00
24160;BME280;62385;41.594;23.808;2023-04-28T08:55:10;95663.31;;;11.62;43.75
24160;BME280;62385;41.594;23.808;2023-04-28T08:57:38;95667.69;;;11.94;47.09
24160;BME280;62385;41.594;23.808;2023-04-28T09:00:05;95665.13;;;12.54;43.66
24160;BME280;62385;41.594;23.808;2023-04-28T09:02:31;95658.06;;;12.38;46.38
24160;BME280;62385;41.594;23.808;2023-04-28T09:04:57;95656.28;;;11.77;44.47
24160;BME280;62385;41.594;23.808;2023-04-28T09:07:22;95654.69;;;11.60;43.85
24160;BME280;62385;41.594;23.808;2023-04-28T09:09:48;95649.94;;;11.86;40.35
24160;BME280;62385;41.594;23.808;2023-04-28T09:12:14;95655.16;;;12.02;41.78
24160;BME280;62385;41.594;23.808;2023-04-28T09:14:39;95642.69;;;12.26;40.61
24160;BME280;62385;41.594;23.808;2023-04-28T09:17:11;95643.50;;;12.72;43.34
24160;BME280;62385;41.594;23.808;2023-04-28T09:19:38;95642.63;;;12.94;41.67
24160;BME280;62385;41.594;23.808;2023-04-28T09:22:04;95631.16;;;12.93;40.63
24160;BME280;62385;41.594;23.808;2023-04-28T09:27:03;95628.84;;;12.30;42.55
24160;BME280;62385;41.594;23.808;2023-04-28T09:29:32;95626.25;;;13.34;42.55
24160;BME280;62385;41.594;23.808;2023-04-28T09:32:18;95622.63;;;13.42;43.37
24160;BME280;62385;41.594;23.808;2023-04-28T09:34:45;95623.84;;;13.10;40.89
24160;BME280;62385;41.594;23.808;2023-04-28T09:37:18;95612.41;;;12.87;41.72
24160;BME280;62385;41.594;23.808;2023-04-28T09:39:50;95614.00;;;13.55;42.93
24160;BME280;62385;41.594;23.808;2023-04-28T09:42:43;95605.81;;;13.56;43.08
24160;BME280;62385;41.594;23.808;2023-04-28T09:45:11;95604.25;;;13.03;40.06
24160;BME280;62385;41.594;23.808;2023-04-28T09:47:43;95596.50;;;13.67;42.60
24160;BME280;62385;41.594;23.808;2023-04-28T09:50:13;95590.72;;;13.99;43.81
24160;BME280;62385;41.594;23.808;2023-04-28T09:52:55;95594.31;;;13.56;37.99
24160;BME280;62385;41.594;23.808;2023-04-28T09:55:27;95584.84;;;13.89;41.37
24160;BME280;62385;41.594;23.808;2023-04-28T09:57:53;95582.34;;;14.23;40.45
24160;BME280;62385;41.594;23.808;2023-04-28T10:00:19;95577.63;;;14.25;40.66
24160;BME280;62385;41.594;23.808;2023-04-28T10:02:48;95579.19;;;13.77;38.70
24160;BME280;62385;41.594;23.808;2023-04-28T10:05:27;95567.81;;;13.54;39.57
24160;BME280;62385;41.594;23.808;2023-04-28T10:08:22;95567.63;;;13.70;37.92
24160;BME280;62385;41.594;23.808;2023-04-28T10:10:59;95561.16;;;14.22;38.34
24160;BME280;62385;41.594;23.808;2023-04-28T10:13:25;95558.75;;;14.27;38.76
24160;BME280;62385;41.594;23.808;2023-04-28T10:15:54;95557.66;;;14.21;38.24
24160;BME280;62385;41.594;23.808;2023-04-28T10:18:27;95545.28;;;14.35;39.28
24160;BME280;62385;41.594;23.808;2023-04-28T10:20:59;95547.50;;;14.31;39.31
24160;BME280;62385;41.594;23.808;2023-04-28T10:24:17;95539.88;;;14.77;36.47
24160;BME280;62385;41.594;23.808;2023-04-28T10:27:02;95540.09;;;14.33;38.69
24160;BME280;62385;41.594;23.808;2023-04-28T10:29:34;95535.69;;;13.98;37.87
24160;BME280;62385;41.594;23.808;2023-04-28T10:34:42;95533.84;;;13.42;38.57
24160;BME280;62385;41.594;23.808;2023-04-28T10:37:11;95520.34;;;13.85;35.51
24160;BME280;62385;41.594;23.808;2023-04-28T10:39:41;95517.91;;;14.54;39.98
24160;BME280;62385;41.594;23.808;2023-04-28T10:45:58;95498.31;;;14.41;35.84
24160;BME280;62385;41.594;23.808;2023-04-28T10:56:15;95500.88;;;14.55;33.64
24160;BME280;62385;41.594;23.808;2023-04-28T10:58:47;95496.22;;;14.36;32.61
24160;BME280;62385;41.594;23.808;2023-04-28T11:01:27;95489.06;;;15.12;37.05
24160;BME280;62385;41.594;23.808;2023-04-28T11:03:58;95491.00;;;14.56;33.85
24160;BME280;62385;41.594;23.808;2023-04-28T11:06:46;95483.34;;;14.81;34.33
24160;BME280;62385;41.594;23.808;2023-04-28T11:19:23;95468.56;;;15.93;36.04
24160;BME280;62385;41.594;23.808;2023-04-28T11:21:50;95467.94;;;15.84;34.68
24160;BME280;62385;41.594;23.808;2023-04-28T11:24:16;95466.47;;;16.87;35.85
24160;BME280;62385;41.594;23.808;2023-04-28T11:26:43;95464.03;;;16.79;34.28
24160;BME280;62385;41.594;23.808;2023-04-28T11:29:10;95462.03;;;17.19;35.19
24160;BME280;62385;41.594;23.808;2023-04-28T11:31:36;95460.75;;;16.77;37.02
24160;BME280;62385;41.594;23.808;2023-04-28T11:34:09;95470.41;;;16.91;32.98
24160;BME280;62385;41.594;23.808;2023-04-28T11:36:37;95466.53;;;16.47;34.12
24160;BME280;62385;41.594;23.808;2023-04-28T11:39:08;95473.34;;;16.30;35.49
24160;BME280;62385;41.594;23.808;2023-04-28T11:41:35;95463.66;;;16.09;30.42
24160;BME280;62385;41.594;23.808;2023-04-28T11:44:15;95456.44;;;16.43;29.75
24160;BME280;62385;41.594;23.808;2023-04-28T11:49:23;95448.38;;;17.33;35.66
24160;BME280;62385;41.594;23.808;2023-04-28T11:51:50;95432.72;;;17.24;36.07
24160;BME280;62385;41.594;23.808;2023-04-28T11:54:25;95439.00;;;16.98;38.71
24160;BME280;62385;41.594;23.808;2023-04-28T11:56:52;95436.88;;;17.26;36.58
24160;BME280;62385;41.594;23.808;2023-04-28T11:59:32;95438.16;;;17.55;36.74
24160;BME280;62385;41.594;23.808;2023-04-28T12:02:04;95448.56;;;17.38;35.83
24160;BME280;62385;41.594;23.808;2023-04-28T12:07:05;95435.81;;;16.50;34.38
24160;BME280;62385;41.594;23.808;2023-04-28T12:09:33;95426.19;;;17.13;38.75
24160;BME280;62385;41.594;23.808;2023-04-28T12:12:01;95424.09;;;17.22;34.72
24160;BME280;62385;41.594;23.808;2023-04-28T12:14:28;95422.78;;;17.75;35.97
24160;BME280;62385;41.594;23.808;2023-04-28T12:16:54;95409.81;;;18.47;35.21
24160;BME280;62385;41.594;23.808;2023-04-28T12:19:21;95415.44;;;17.89;36.51
24160;BME280;62385;41.594;23.808;2023-04-28T12:22:07;95413.47;;;18.09;35.94
24160;BME280;62385;41.594;23.808;2023-04-28T12:24:32;95412.66;;;18.52;33.98
24160;BME280;62385;41.594;23.808;2023-04-28T12:27:20;95401.75;;;18.47;34.79
24160;BME280;62385;41.594;23.808;2023-04-28T12:29:50;95398.03;;;17.29;33.21
24160;BME280;62385;41.594;23.808;2023-04-28T12:32:16;95392.22;;;17.76;35.21
24160;BME280;62385;41.594;23.808;2023-04-28T12:34:44;95394.50;;;17.97;34.46
24160;BME280;62385;41.594;23.808;2023-04-28T12:37:11;95398.19;;;17.78;36.07
24160;BME280;62385;41.594;23.808;2023-04-28T12:39:39;95380.09;;;18.41;35.43
24160;BME280;62385;41.594;23.808;2023-04-28T12:42:05;95382.47;;;18.07;36.28
24160;BME280;62385;41.594;23.808;2023-04-28T12:44:32;95375.69;;;17.73;35.72
24160;BME280;62385;41.594;23.808;2023-04-28T12:47:10;95374.94;;;17.66;34.28
24160;BME280;62385;41.594;23.808;2023-04-28T12:49:36;95376.63;;;17.53;34.83
24160;BME280;62385;41.594;23.808;2023-04-28T12:52:02;95366.56;;;18.30;34.08
24160;BME280;62385;41.594;23.808;2023-04-28T12:54:28;95369.88;;;18.50;33.72
24160;BME280;62385;41.594;23.808;2023-04-28T12:56:54;95357.16;;;17.65;35.20
24160;BME280;62385;41.594;23.808;2023-04-28T12:59:20;95358.25;;;18.13;35.05
24160;BME280;62385;41.594;23.808;2023-04-28T13:01:47;95361.78;;;18.32;33.64
24160;BME280;62385;41.594;23.808;2023-04-28T13:04:12;95365.00;;;18.40;33.61
24160;BME280;62385;41.594;23.808;2023-04-28T13:06:38;95359.94;;;19.05;32.86
24160;BME280;62385;41.594;23.808;2023-04-28T13:09:12;95357.78;;;19.14;32.33
24160;BME280;62385;41.594;23.808;2023-04-28T13:11:40;95353.56;;;18.88;33.26
24160;BME280;62385;41.594;23.808;2023-04-28T13:14:06;95349.66;;;19.02;29.98
24160;BME280;62385;41.594;23.808;2023-04-28T13:16:32;95353.63;;;17.71;30.92
24160;BME280;62385;41.594;23.808;2023-04-28T13:18:59;95351.88;;;18.51;32.54
24160;BME280;62385;41.594;23.808;2023-04-28T13:21:27;95334.97;;;19.16;31.63
24160;BME280;62385;41.594;23.808;2023-04-28T13:23:56;95345.28;;;19.19;31.13
24160;BME280;62385;41.594;23.808;2023-04-28T13:26:22;95344.88;;;19.04;30.50
24160;BME280;62385;41.594;23.808;2023-04-28T13:28:50;95336.13;;;19.80;30.80
24160;BME280;62385;41.594;23.808;2023-04-28T13:31:16;95344.16;;;19.98;30.50
24160;BME280;62385;41.594;23.808;2023-04-28T13:33:42;95337.72;;;19.99;30.79